sensor_id;sensor_type;location;lat;lon;timestamp;P1;durP1;ratioP1;P2;durP2;ratioP2
13067;SDS011;6600;51.362;6.686;2024-03-23T00:53:41;12.67;;;4.60;;
13067;SDS011;6600;51.362;6.686;2024-03-23T00:56:06;14.53;;;4.87;;
13067;SDS011;6600;51.362;6.686;2024-03-23T00:58:32;12.27;;;4.07;;
13067;SDS011;6600;51.362;6.686;2024-03-23T01:00:57;10.77;;;3.30;;
13067;SDS011;6600;51.362;6.686;2024-03-23T01:03:22;10.00;;;3.13;;
13067;SDS011;6600;51.362;6.686;2024-03-23T01:05:47;6.37;;;2.70;;
13067;SDS011;6600;51.362;6.686;2024-03-23T01:08:13;8.27;;;2.37;;
13067;SDS011;6600;51.362;6.686;2024-03-23T01:10:39;6.53;;;2.60;;
13067;SDS011;6600;51.362;6.686;2024-03-23T01:13:04;4.53;;;2.33;;
13067;SDS011;6600;51.362;6.686;2024-03-23T01:15:30;6.03;;;1.63;;
13067;SDS011;6600;51.362;6.686;2024-03-23T01:17:55;6.93;;;1.70;;
13067;SDS011;6600;51.362;6.686;2024-03-23T01:20:20;5.00;;;1.53;;
13067;SDS011;6600;51.362;6.686;2024-03-23T01:22:46;1.93;;;1.13;;
13067;SDS011;6600;51.362;6.686;2024-03-23T01:25:11;4.27;;;1.50;;
13067;SDS011;6600;51.362;6.686;2024-03-23T01:27:36;5.23;;;1.60;;
13067;SDS011;6600;51.362;6.686;2024-03-23T01:30:02;3.17;;;1.30;;
13067;SDS011;6600;51.362;6.686;2024-03-23T01:32:27;6.20;;;1.33;;
13067;SDS011;6600;51.362;6.686;2024-03-23T01:34:52;7.73;;;1.87;;
13067;SDS011;6600;51.362;6.686;2024-03-23T01:37:18;6.83;;;1.60;;
13067;SDS011;6600;51.362;6.686;2024-03-23T01:39:43;8.13;;;1.93;;
13067;SDS011;6600;51.362;6.686;2024-03-23T01:42:08;5.57;;;1.90;;
13067;SDS011;6600;51.362;6.686;2024-03-23T01:44:34;4.60;;;1.30;;
13067;SDS011;6600;51.362;6.686;2024-03-23T01:46:59;2.27;;;1.40;;
13067;SDS011;6600;51.362;6.686;2024-03-23T01:49:24;4.37;;;1.40;;
13067;SDS011;6600;51.362;6.686;2024-03-23T01:51:50;5.70;;;1.27;;
13067;SDS011;6600;51.362;6.686;2024-03-23T01:54:15;3.80;;;1.20;;
13067;SDS011;6600;51.362;6.686;2024-03-23T01:56:41;3.10;;;1.73;;
13067;SDS011;6600;51.362;6.686;2024-03-23T01:59:07;4.13;;;1.40;;
13067;SDS011;6600;51.362;6.686;2024-03-23T02:01:32;4.07;;;1.27;;
13067;SDS011;6600;51.362;6.686;2024-03-23T02:04:01;2.17;;;1.30;;
13067;SDS011;6600;51.362;6.686;2024-03-23T02:06:26;3.70;;;1.40;;
13067;SDS011;6600;51.362;6.686;2024-03-23T02:08:52;6.00;;;1.70;;
13067;SDS011;6600;51.362;6.686;2024-03-23T02:11:19;5.67;;;1.80;;
13067;SDS011;6600;51.362;6.686;2024-03-23T02:13:44;3.97;;;1.73;;
13067;SDS011;6600;51.362;6.686;2024-03-23T02:16:10;5.20;;;1.90;;
13067;SDS011;6600;51.362;6.686;2024-03-23T02:18:35;8.33;;;2.20;;
13067;SDS011;6600;51.362;6.686;2024-03-23T02:21:00;4.97;;;1.70;;
13067;SDS011;6600;51.362;6.686;2024-03-23T02:23:26;5.07;;;1.77;;
13067;SDS011;6600;51.362;6.686;2024-03-23T02:25:51;5.13;;;1.80;;
13067;SDS011;6600;51.362;6.686;2024-03-23T02:28:18;4.57;;;1.67;;
13067;SDS011;6600;51.362;6.686;2024-03-23T02:30:44;5.67;;;1.57;;
13067;SDS011;6600;51.362;6.686;2024-03-23T02:33:09;5.03;;;1.93;;
13067;SDS011;6600;51.362;6.686;2024-03-23T02:35:34;4.57;;;1.70;;
13067;SDS011;6600;51.362;6.686;2024-03-23T02:38:00;5.43;;;1.60;;
13067;SDS011;6600;51.362;6.686;2024-03-23T02:40:25;6.13;;;1.90;;
13067;SDS011;6600;51.362;6.686;2024-03-23T02:42:51;3.43;;;1.70;;
13067;SDS011;6600;51.362;6.686;2024-03-23T02:45:17;5.90;;;1.97;;
13067;SDS011;6600;51.362;6.686;2024-03-23T02:47:42;6.47;;;2.20;;
13067;SDS011;6600;51.362;6.686;2024-03-23T02:50:08;8.50;;;2.00;;
13067;SDS011;6600;51.362;6.686;2024-03-23T02:52:34;3.97;;;1.67;;
13067;SDS011;6600;51.362;6.686;2024-03-23T02:54:59;6.37;;;1.97;;
13067;SDS011;6600;51.362;6.686;2024-03-23T02:57:26;5.80;;;1.83;;
13067;SDS011;6600;51.362;6.686;2024-03-23T02:59:52;4.13;;;2.03;;
13067;SDS011;6600;51.362;6.686;2024-03-23T03:02:17;5.60;;;1.90;;
13067;SDS011;6600;51.362;6.686;2024-03-23T03:04:42;2.70;;;1.63;;
13067;SDS011;6600;51.362;6.686;2024-03-23T03:07:08;4.03;;;1.90;;
13067;SDS011;6600;51.362;6.686;2024-03-23T03:09:33;8.30;;;2.20;;
13067;SDS011;6600;51.362;6.686;2024-03-23T03:12:00;8.47;;;2.00;;
13067;SDS011;6600;51.362;6.686;2024-03-23T03:14:27;3.47;;;1.63;;
13067;SDS011;6600;51.362;6.686;2024-03-23T03:16:53;7.07;;;2.03;;
13067;SDS011;6600;51.362;6.686;2024-03-23T03:19:18;6.50;;;2.20;;
13067;SDS011;6600;51.362;6.686;2024-03-23T03:21:44;10.50;;;2.93;;
13067;SDS011;6600;51.362;6.686;2024-03-23T03:24:09;7.50;;;2.07;;
13067;SDS011;6600;51.362;6.686;2024-03-23T03:26:34;4.73;;;1.60;;
13067;SDS011;6600;51.362;6.686;2024-03-23T03:29:00;4.40;;;2.10;;
13067;SDS011;6600;51.362;6.686;2024-03-23T03:31:25;4.93;;;2.03;;
13067;SDS011;6600;51.362;6.686;2024-03-23T03:33:51;4.23;;;1.50;;
13067;SDS011;6600;51.362;6.686;2024-03-23T03:36:16;5.93;;;2.00;;
13067;SDS011;6600;51.362;6.686;2024-03-23T03:38:42;3.80;;;1.70;;
13067;SDS011;6600;51.362;6.686;2024-03-23T03:41:07;5.83;;;2.13;;
13067;SDS011;6600;51.362;6.686;2024-03-23T03:43:32;7.93;;;1.93;;
13067;SDS011;6600;51.362;6.686;2024-03-23T03:45:58;7.17;;;1.67;;
13067;SDS011;6600;51.362;6.686;2024-03-23T03:48:24;4.47;;;2.10;;
13067;SDS011;6600;51.362;6.686;2024-03-23T03:50:50;5.17;;;2.27;;
13067;SDS011;6600;51.362;6.686;2024-03-23T03:53:15;6.13;;;2.20;;
13067;SDS011;6600;51.362;6.686;2024-03-23T03:55:41;7.90;;;2.13;;
13067;SDS011;6600;51.362;6.686;2024-03-23T03:58:06;6.57;;;2.20;;
13067;SDS011;6600;51.362;6.686;2024-03-23T04:00:31;11.73;;;2.33;;
13067;SDS011;6600;51.362;6.686;2024-03-23T04:02:57;7.07;;;2.10;;
13067;SDS011;6600;51.362;6.686;2024-03-23T04:05:23;5.10;;;1.67;;
13067;SDS011;6600;51.362;6.686;2024-03-23T04:07:48;5.17;;;2.33;;
13067;SDS011;6600;51.362;6.686;2024-03-23T04:10:14;6.87;;;2.50;;
13067;SDS011;6600;51.362;6.686;2024-03-23T04:12:40;4.43;;;2.27;;
13067;SDS011;6600;51.362;6.686;2024-03-23T04:15:08;4.47;;;1.93;;
13067;SDS011;6600;51.362;6.686;2024-03-23T04:17:35;6.70;;;2.17;;
13067;SDS011;6600;51.362;6.686;2024-03-23T04:20:01;3.50;;;1.97;;
13067;SDS011;6600;51.362;6.686;2024-03-23T04:22:28;7.27;;;2.67;;
13067;SDS011;6600;51.362;6.686;2024-03-23T04:24:53;5.77;;;2.10;;
13067;SDS011;6600;51.362;6.686;2024-03-23T04:27:19;9.07;;;3.13;;
13067;SDS011;6600;51.362;6.686;2024-03-23T04:29:48;8.43;;;2.37;;
13067;SDS011;6600;51.362;6.686;2024-03-23T04:32:16;12.47;;;2.97;;
13067;SDS011;6600;51.362;6.686;2024-03-23T04:34:42;6.17;;;2.40;;
13067;SDS011;6600;51.362;6.686;2024-03-23T04:37:08;8.03;;;2.87;;
13067;SDS011;6600;51.362;6.686;2024-03-23T04:39:35;7.17;;;2.43;;
13067;SDS011;6600;51.362;6.686;2024-03-23T04:42:01;7.83;;;3.63;;
13067;SDS011;6600;51.362;6.686;2024-03-23T04:44:26;9.57;;;3.60;;
13067;SDS011;6600;51.362;6.686;2024-03-23T04:46:51;12.53;;;3.70;;
13067;SDS011;6600;51.362;6.686;2024-03-23T04:49:16;8.73;;;3.63;;
13067;SDS011;6600;51.362;6.686;2024-03-23T04:51:42;6.87;;;2.93;;
13067;SDS011;6600;51.362;6.686;2024-03-23T04:54:11;8.60;;;3.60;;
13067;SDS011;6600;51.362;6.686;2024-03-23T04:56:37;9.13;;;3.07;;
13067;SDS011;6600;51.362;6.686;2024-03-23T04:59:02;10.17;;;3.57;;
13067;SDS011;6600;51.362;6.686;2024-03-23T05:01:29;14.17;;;3.87;;
13067;SDS011;6600;51.362;6.686;2024-03-23T05:03:56;13.03;;;3.73;;
13067;SDS011;6600;51.362;6.686;2024-03-23T05:06:22;9.90;;;3.77;;
13067;SDS011;6600;51.362;6.686;2024-03-23T05:08:47;9.37;;;4.57;;
13067;SDS011;6600;51.362;6.686;2024-03-23T05:11:13;10.37;;;4.30;;
13067;SDS011;6600;51.362;6.686;2024-03-23T05:13:38;14.43;;;4.50;;
13067;SDS011;6600;51.362;6.686;2024-03-23T05:16:03;9.03;;;4.00;;
13067;SDS011;6600;51.362;6.686;2024-03-23T05:18:29;10.17;;;4.77;;
13067;SDS011;6600;51.362;6.686;2024-03-23T05:20:56;10.33;;;4.63;;
13067;SDS011;6600;51.362;6.686;2024-03-23T05:23:22;8.30;;;4.13;;
13067;SDS011;6600;51.362;6.686;2024-03-23T05:25:48;9.30;;;4.63;;
13067;SDS011;6600;51.362;6.686;2024-03-23T05:28:13;10.00;;;4.20;;
13067;SDS011;6600;51.362;6.686;2024-03-23T05:30:38;10.73;;;4.43;;
13067;SDS011;6600;51.362;6.686;2024-03-23T05:33:05;11.50;;;4.60;;
13067;SDS011;6600;51.362;6.686;2024-03-23T05:35:30;9.67;;;3.97;;
13067;SDS011;6600;51.362;6.686;2024-03-23T05:37:55;12.07;;;4.27;;
13067;SDS011;6600;51.362;6.686;2024-03-23T05:40:21;9.80;;;5.03;;
13067;SDS011;6600;51.362;6.686;2024-03-23T05:42:46;11.57;;;5.63;;
13067;SDS011;6600;51.362;6.686;2024-03-23T05:45:11;7.70;;;5.20;;
13067;SDS011;6600;51.362;6.686;2024-03-23T05:47:37;11.83;;;5.43;;
13067;SDS011;6600;51.362;6.686;2024-03-23T05:50:03;10.73;;;5.67;;
13067;SDS011;6600;51.362;6.686;2024-03-23T05:52:28;12.73;;;5.43;;
13067;SDS011;6600;51.362;6.686;2024-03-23T05:54:54;15.80;;;5.63;;
13067;SDS011;6600;51.362;6.686;2024-03-23T05:57:20;15.53;;;6.37;;
13067;SDS011;6600;51.362;6.686;2024-03-23T05:59:45;9.90;;;5.67;;
13067;SDS011;6600;51.362;6.686;2024-03-23T06:02:11;12.53;;;7.00;;
13067;SDS011;6600;51.362;6.686;2024-03-23T06:04:36;14.00;;;7.20;;
13067;SDS011;6600;51.362;6.686;2024-03-23T06:07:02;20.33;;;8.07;;
13067;SDS011;6600;51.362;6.686;2024-03-23T06:09:27;12.57;;;7.50;;
13067;SDS011;6600;51.362;6.686;2024-03-23T06:11:56;15.57;;;7.60;;
13067;SDS011;6600;51.362;6.686;2024-03-23T06:14:21;17.23;;;8.17;;
13067;SDS011;6600;51.362;6.686;2024-03-23T06:16:47;19.93;;;7.23;;
13067;SDS011;6600;51.362;6.686;2024-03-23T06:19:12;14.20;;;7.60;;
13067;SDS011;6600;51.362;6.686;2024-03-23T06:21:38;12.13;;;6.93;;
13067;SDS011;6600;51.362;6.686;2024-03-23T06:24:09;20.53;;;7.90;;
13067;SDS011;6600;51.362;6.686;2024-03-23T06:26:34;16.17;;;7.07;;
13067;SDS011;6600;51.362;6.686;2024-03-23T06:28:59;18.60;;;8.23;;
13067;SDS011;6600;51.362;6.686;2024-03-23T06:31:24;17.00;;;7.57;;
13067;SDS011;6600;51.362;6.686;2024-03-23T06:33:50;13.97;;;6.70;;
13067;SDS011;6600;51.362;6.686;2024-03-23T06:36:15;10.60;;;6.17;;
13067;SDS011;6600;51.362;6.686;2024-03-23T06:38:40;18.37;;;7.00;;
13067;SDS011;6600;51.362;6.686;2024-03-23T06:41:06;14.90;;;7.27;;
13067;SDS011;6600;51.362;6.686;2024-03-23T06:43:31;12.43;;;6.93;;
13067;SDS011;6600;51.362;6.686;2024-03-23T06:45:57;14.73;;;5.93;;
13067;SDS011;6600;51.362;6.686;2024-03-23T06:48:22;15.70;;;5.33;;
13067;SDS011;6600;51.362;6.686;2024-03-23T06:50:48;8.90;;;4.53;;
13067;SDS011;6600;51.362;6.686;2024-03-23T06:53:13;8.23;;;4.30;;
13067;SDS011;6600;51.362;6.686;2024-03-23T06:55:39;9.30;;;4.47;;
13067;SDS011;6600;51.362;6.686;2024-03-23T06:58:05;9.80;;;4.37;;
13067;SDS011;6600;51.362;6.686;2024-03-23T07:00:30;7.23;;;4.00;;
13067;SDS011;6600;51.362;6.686;2024-03-23T07:02:57;8.70;;;3.97;;
13067;SDS011;6600;51.362;6.686;2024-03-23T07:05:22;8.37;;;3.80;;
13067;SDS011;6600;51.362;6.686;2024-03-23T07:07:48;9.73;;;4.10;;
13067;SDS011;6600;51.362;6.686;2024-03-23T07:10:13;6.07;;;3.53;;
13067;SDS011;6600;51.362;6.686;2024-03-23T07:12:38;11.37;;;4.27;;
13067;SDS011;6600;51.362;6.686;2024-03-23T07:15:04;9.73;;;4.07;;
13067;SDS011;6600;51.362;6.686;2024-03-23T07:17:29;9.63;;;3.87;;
13067;SDS011;6600;51.362;6.686;2024-03-23T07:19:55;10.93;;;4.30;;
13067;SDS011;6600;51.362;6.686;2024-03-23T07:22:20;8.03;;;3.90;;
13067;SDS011;6600;51.362;6.686;2024-03-23T07:24:46;6.60;;;3.83;;
13067;SDS011;6600;51.362;6.686;2024-03-23T07:27:12;9.30;;;4.23;;
13067;SDS011;6600;51.362;6.686;2024-03-23T07:29:37;8.27;;;3.80;;
13067;SDS011;6600;51.362;6.686;2024-03-23T07:32:02;8.60;;;4.60;;
13067;SDS011;6600;51.362;6.686;2024-03-23T07:34:28;12.13;;;4.27;;
13067;SDS011;6600;51.362;6.686;2024-03-23T07:36:53;11.90;;;4.13;;
13067;SDS011;6600;51.362;6.686;2024-03-23T07:39:18;11.77;;;4.43;;
13067;SDS011;6600;51.362;6.686;2024-03-23T07:41:44;9.43;;;4.17;;
13067;SDS011;6600;51.362;6.686;2024-03-23T07:44:10;12.13;;;4.10;;
13067;SDS011;6600;51.362;6.686;2024-03-23T07:46:36;13.00;;;4.23;;
13067;SDS011;6600;51.362;6.686;2024-03-23T07:49:01;8.27;;;3.87;;
13067;SDS011;6600;51.362;6.686;2024-03-23T07:51:26;8.30;;;4.03;;
13067;SDS011;6600;51.362;6.686;2024-03-23T07:53:52;8.93;;;3.57;;
13067;SDS011;6600;51.362;6.686;2024-03-23T07:56:18;7.77;;;3.73;;
13067;SDS011;6600;51.362;6.686;2024-03-23T07:58:45;11.10;;;4.00;;
13067;SDS011;6600;51.362;6.686;2024-03-23T08:01:11;9.70;;;4.03;;
13067;SDS011;6600;51.362;6.686;2024-03-23T08:03:39;6.00;;;3.43;;
13067;SDS011;6600;51.362;6.686;2024-03-23T08:06:06;7.87;;;3.93;;
13067;SDS011;6600;51.362;6.686;2024-03-23T08:08:43;8.13;;;4.17;;
13067;SDS011;6600;51.362;6.686;2024-03-23T08:11:10;13.33;;;4.10;;
13067;SDS011;6600;51.362;6.686;2024-03-23T08:13:35;12.10;;;4.97;;
13067;SDS011;6600;51.362;6.686;2024-03-23T08:16:03;11.83;;;4.00;;
13067;SDS011;6600;51.362;6.686;2024-03-23T08:18:29;11.27;;;4.63;;
13067;SDS011;6600;51.362;6.686;2024-03-23T08:21:03;12.10;;;3.93;;
13067;SDS011;6600;51.362;6.686;2024-03-23T08:23:33;9.43;;;3.90;;
13067;SDS011;6600;51.362;6.686;2024-03-23T08:26:01;6.57;;;2.90;;
13067;SDS011;6600;51.362;6.686;2024-03-23T08:28:28;3.43;;;1.97;;
13067;SDS011;6600;51.362;6.686;2024-03-23T08:30:54;2.10;;;1.43;;
13067;SDS011;6600;51.362;6.686;2024-03-23T08:33:20;6.87;;;1.23;;
13067;SDS011;6600;51.362;6.686;2024-03-23T08:35:53;1.93;;;1.20;;
13067;SDS011;6600;51.362;6.686;2024-03-23T08:38:22;1.80;;;0.87;;
13067;SDS011;6600;51.362;6.686;2024-03-23T08:40:56;2.17;;;1.00;;
13067;SDS011;6600;51.362;6.686;2024-03-23T08:43:22;1.83;;;1.00;;
13067;SDS011;6600;51.362;6.686;2024-03-23T08:45:47;5.00;;;1.57;;
13067;SDS011;6600;51.362;6.686;2024-03-23T08:48:13;3.03;;;1.70;;
13067;SDS011;6600;51.362;6.686;2024-03-23T08:50:38;5.67;;;2.17;;
13067;SDS011;6600;51.362;6.686;2024-03-23T08:53:03;5.57;;;2.20;;
13067;SDS011;6600;51.362;6.686;2024-03-23T08:55:29;4.13;;;2.27;;
13067;SDS011;6600;51.362;6.686;2024-03-23T08:57:55;4.90;;;2.60;;
13067;SDS011;6600;51.362;6.686;2024-03-23T09:00:20;3.63;;;2.37;;
13067;SDS011;6600;51.362;6.686;2024-03-23T09:02:49;4.50;;;2.80;;
13067;SDS011;6600;51.362;6.686;2024-03-23T09:05:15;7.40;;;3.40;;
13067;SDS011;6600;51.362;6.686;2024-03-23T09:07:40;8.70;;;4.00;;
13067;SDS011;6600;51.362;6.686;2024-03-23T09:10:06;4.33;;;3.77;;
13067;SDS011;6600;51.362;6.686;2024-03-23T09:12:32;10.17;;;4.20;;
13067;SDS011;6600;51.362;6.686;2024-03-23T09:14:57;4.33;;;3.90;;
13067;SDS011;6600;51.362;6.686;2024-03-23T09:17:23;5.27;;;4.40;;
13067;SDS011;6600;51.362;6.686;2024-03-23T09:19:48;7.97;;;4.30;;
13067;SDS011;6600;51.362;6.686;2024-03-23T09:22:13;7.80;;;4.10;;
13067;SDS011;6600;51.362;6.686;2024-03-23T09:24:39;9.00;;;4.17;;
13067;SDS011;6600;51.362;6.686;2024-03-23T09:27:05;8.13;;;4.07;;
13067;SDS011;6600;51.362;6.686;2024-03-23T09:29:30;6.93;;;4.53;;
13067;SDS011;6600;51.362;6.686;2024-03-23T09:31:56;8.40;;;4.47;;
13067;SDS011;6600;51.362;6.686;2024-03-23T09:34:21;9.03;;;3.40;;
13067;SDS011;6600;51.362;6.686;2024-03-23T09:36:47;11.83;;;4.30;;
13067;SDS011;6600;51.362;6.686;2024-03-23T09:39:15;12.93;;;4.00;;
13067;SDS011;6600;51.362;6.686;2024-03-23T09:41:40;5.10;;;3.57;;
13067;SDS011;6600;51.362;6.686;2024-03-23T09:44:06;6.17;;;3.33;;
13067;SDS011;6600;51.362;6.686;2024-03-23T09:46:32;5.90;;;2.50;;
13067;SDS011;6600;51.362;6.686;2024-03-23T09:48:59;5.80;;;3.23;;
13067;SDS011;6600;51.362;6.686;2024-03-23T09:51:25;8.03;;;3.63;;
13067;SDS011;6600;51.362;6.686;2024-03-23T09:53:50;8.37;;;2.97;;
13067;SDS011;6600;51.362;6.686;2024-03-23T09:56:23;7.37;;;2.80;;
13067;SDS011;6600;51.362;6.686;2024-03-23T09:58:49;7.97;;;2.73;;
13067;SDS011;6600;51.362;6.686;2024-03-23T10:01:14;8.23;;;2.90;;
13067;SDS011;6600;51.362;6.686;2024-03-23T10:03:46;6.83;;;2.87;;
13067;SDS011;6600;51.362;6.686;2024-03-23T10:06:12;6.33;;;2.93;;
13067;SDS011;6600;51.362;6.686;2024-03-23T10:08:37;10.20;;;2.50;;
13067;SDS011;6600;51.362;6.686;2024-03-23T10:11:21;9.83;;;3.03;;
13067;SDS011;6600;51.362;6.686;2024-03-23T10:13:46;5.80;;;2.20;;
13067;SDS011;6600;51.362;6.686;2024-03-23T10:16:12;7.23;;;2.10;;
13067;SDS011;6600;51.362;6.686;2024-03-23T10:18:45;5.47;;;1.90;;
13067;SDS011;6600;51.362;6.686;2024-03-23T10:21:10;3.83;;;2.03;;
13067;SDS011;6600;51.362;6.686;2024-03-23T10:23:40;5.53;;;2.07;;
13067;SDS011;6600;51.362;6.686;2024-03-23T10:28:57;3.40;;;2.00;;
13067;SDS011;6600;51.362;6.686;2024-03-23T10:31:32;7.93;;;2.67;;
13067;SDS011;6600;51.362;6.686;2024-03-23T10:33:58;3.30;;;1.57;;
13067;SDS011;6600;51.362;6.686;2024-03-23T10:36:25;4.03;;;1.47;;
13067;SDS011;6600;51.362;6.686;2024-03-23T10:38:51;1.37;;;1.10;;
13067;SDS011;6600;51.362;6.686;2024-03-23T10:41:18;3.87;;;1.27;;
13067;SDS011;6600;51.362;6.686;2024-03-23T10:43:47;3.10;;;1.47;;
13067;SDS011;6600;51.362;6.686;2024-03-23T10:46:14;2.57;;;1.27;;
13067;SDS011;6600;51.362;6.686;2024-03-23T10:48:41;2.00;;;0.93;;
13067;SDS011;6600;51.362;6.686;2024-03-23T10:51:07;2.33;;;1.10;;
13067;SDS011;6600;51.362;6.686;2024-03-23T10:53:34;1.23;;;1.10;;
13067;SDS011;6600;51.362;6.686;2024-03-23T10:56:00;2.47;;;0.90;;
13067;SDS011;6600;51.362;6.686;2024-03-23T10:58:47;2.33;;;1.17;;
13067;SDS011;6600;51.362;6.686;2024-03-23T11:01:13;2.17;;;1.10;;
13067;SDS011;6600;51.362;6.686;2024-03-23T11:03:39;3.40;;;0.90;;
13067;SDS011;6600;51.362;6.686;2024-03-23T11:09:50;3.53;;;1.10;;
13067;SDS011;6600;51.362;6.686;2024-03-23T11:12:08;2.80;;;1.20;;
13067;SDS011;6600;51.362;6.686;2024-03-23T11:14:48;4.10;;;1.57;;
13067;SDS011;6600;51.362;6.686;2024-03-23T11:17:18;2.37;;;1.63;;
13067;SDS011;6600;51.362;6.686;2024-03-23T11:20:00;4.30;;;1.37;;
13067;SDS011;6600;51.362;6.686;2024-03-23T11:25:02;2.83;;;1.50;;
13067;SDS011;6600;51.362;6.686;2024-03-23T11:27:28;3.40;;;1.43;;
13067;SDS011;6600;51.362;6.686;2024-03-23T11:29:53;2.10;;;1.50;;
13067;SDS011;6600;51.362;6.686;2024-03-23T11:32:18;5.83;;;1.80;;
13067;SDS011;6600;51.362;6.686;2024-03-23T11:34:44;4.43;;;1.83;;
13067;SDS011;6600;51.362;6.686;2024-03-23T11:37:09;5.40;;;1.80;;
13067;SDS011;6600;51.362;6.686;2024-03-23T11:39:34;3.80;;;1.80;;
13067;SDS011;6600;51.362;6.686;2024-03-23T11:42:00;5.27;;;2.73;;
13067;SDS011;6600;51.362;6.686;2024-03-23T11:44:26;6.37;;;1.37;;
13067;SDS011;6600;51.362;6.686;2024-03-23T11:46:51;2.50;;;0.80;;
13067;SDS011;6600;51.362;6.686;2024-03-23T11:49:24;1.63;;;0.80;;
13067;SDS011;6600;51.362;6.686;2024-03-23T11:51:50;1.57;;;0.70;;
13067;SDS011;6600;51.362;6.686;2024-03-23T11:54:26;3.13;;;1.03;;
13067;SDS011;6600;51.362;6.686;2024-03-23T11:56:56;1.90;;;1.07;;
13067;SDS011;6600;51.362;6.686;2024-03-23T11:59:34;1.83;;;1.00;;
13067;SDS011;6600;51.362;6.686;2024-03-23T12:02:05;1.97;;;0.90;;
13067;SDS011;6600;51.362;6.686;2024-03-23T12:04:43;1.90;;;1.07;;
13067;SDS011;6600;51.362;6.686;2024-03-23T12:07:18;3.40;;;1.20;;
13067;SDS011;6600;51.362;6.686;2024-03-23T12:09:45;4.37;;;1.20;;
13067;SDS011;6600;51.362;6.686;2024-03-23T12:12:15;2.27;;;1.50;;
13067;SDS011;6600;51.362;6.686;2024-03-23T12:14:43;2.60;;;1.20;;
13067;SDS011;6600;51.362;6.686;2024-03-23T12:17:10;3.63;;;1.43;;
13067;SDS011;6600;51.362;6.686;2024-03-23T12:19:36;2.33;;;1.40;;
13067;SDS011;6600;51.362;6.686;2024-03-23T12:22:05;4.10;;;1.70;;
13067;SDS011;6600;51.362;6.686;2024-03-23T12:24:31;6.03;;;1.70;;
13067;SDS011;6600;51.362;6.686;2024-03-23T12:27:00;4.43;;;2.00;;
13067;SDS011;6600;51.362;6.686;2024-03-23T12:29:33;3.27;;;1.50;;
13067;SDS011;6600;51.362;6.686;2024-03-23T12:31:59;3.73;;;1.53;;
13067;SDS011;6600;51.362;6.686;2024-03-23T12:34:25;3.27;;;1.70;;
13067;SDS011;6600;51.362;6.686;2024-03-23T12:36:51;4.10;;;1.67;;
13067;SDS011;6600;51.362;6.686;2024-03-23T12:39:16;3.10;;;1.80;;
13067;SDS011;6600;51.362;6.686;2024-03-23T12:41:42;4.00;;;1.00;;
13067;SDS011;6600;51.362;6.686;2024-03-23T12:44:07;2.83;;;0.97;;
13067;SDS011;6600;51.362;6.686;2024-03-23T12:46:36;1.93;;;1.03;;
13067;SDS011;6600;51.362;6.686;2024-03-23T12:49:01;0.70;;;0.60;;
13067;SDS011;6600;51.362;6.686;2024-03-23T12:51:27;2.20;;;0.93;;
13067;SDS011;6600;51.362;6.686;2024-03-23T12:53:52;1.30;;;0.80;;
13067;SDS011;6600;51.362;6.686;2024-03-23T12:56:17;1.83;;;1.17;;
13067;SDS011;6600;51.362;6.686;2024-03-23T12:58:43;2.77;;;1.20;;
13067;SDS011;6600;51.362;6.686;2024-03-23T13:01:09;3.50;;;1.40;;
13067;SDS011;6600;51.362;6.686;2024-03-23T13:03:34;3.80;;;1.50;;
13067;SDS011;6600;51.362;6.686;2024-03-23T13:05:59;5.37;;;2.10;;
13067;SDS011;6600;51.362;6.686;2024-03-23T13:08:25;4.07;;;1.60;;
13067;SDS011;6600;51.362;6.686;2024-03-23T13:10:53;5.03;;;1.40;;
13067;SDS011;6600;51.362;6.686;2024-03-23T13:13:18;4.37;;;1.10;;
13067;SDS011;6600;51.362;6.686;2024-03-23T13:15:50;2.97;;;0.90;;
13067;SDS011;6600;51.362;6.686;2024-03-23T13:18:16;4.20;;;1.27;;
13067;SDS011;6600;51.362;6.686;2024-03-23T13:20:41;2.43;;;1.00;;
13067;SDS011;6600;51.362;6.686;2024-03-23T13:23:06;5.33;;;1.20;;
13067;SDS011;6600;51.362;6.686;2024-03-23T13:25:32;4.07;;;1.17;;
13067;SDS011;6600;51.362;6.686;2024-03-23T13:27:58;3.27;;;0.90;;
13067;SDS011;6600;51.362;6.686;2024-03-23T13:30:23;1.80;;;1.13;;
13067;SDS011;6600;51.362;6.686;2024-03-23T13:32:48;2.90;;;0.80;;
13067;SDS011;6600;51.362;6.686;2024-03-23T13:35:14;2.37;;;0.93;;
13067;SDS011;6600;51.362;6.686;2024-03-23T13:37:39;1.87;;;0.70;;
13067;SDS011;6600;51.362;6.686;2024-03-23T13:40:05;1.50;;;0.80;;
13067;SDS011;6600;51.362;6.686;2024-03-23T13:42:31;2.13;;;0.70;;
13067;SDS011;6600;51.362;6.686;2024-03-23T13:44:57;3.33;;;0.80;;
13067;SDS011;6600;51.362;6.686;2024-03-23T13:47:22;1.53;;;0.70;;
13067;SDS011;6600;51.362;6.686;2024-03-23T13:49:47;1.13;;;0.80;;
13067;SDS011;6600;51.362;6.686;2024-03-23T13:52:14;2.70;;;1.13;;
13067;SDS011;6600;51.362;6.686;2024-03-23T13:54:39;1.30;;;1.00;;
13067;SDS011;6600;51.362;6.686;2024-03-23T13:57:10;3.50;;;1.90;;
13067;SDS011;6600;51.362;6.686;2024-03-23T13:59:35;3.80;;;2.10;;
13067;SDS011;6600;51.362;6.686;2024-03-23T14:02:01;4.87;;;1.30;;
13067;SDS011;6600;51.362;6.686;2024-03-23T14:04:26;4.03;;;1.33;;
13067;SDS011;6600;51.362;6.686;2024-03-23T14:06:51;3.40;;;0.90;;
13067;SDS011;6600;51.362;6.686;2024-03-23T14:09:17;2.77;;;1.00;;
13067;SDS011;6600;51.362;6.686;2024-03-23T14:11:46;2.00;;;1.30;;
13067;SDS011;6600;51.362;6.686;2024-03-23T14:14:12;1.40;;;1.30;;
13067;SDS011;6600;51.362;6.686;2024-03-23T14:16:37;5.80;;;1.43;;
13067;SDS011;6600;51.362;6.686;2024-03-23T14:19:03;4.50;;;1.27;;
13067;SDS011;6600;51.362;6.686;2024-03-23T14:21:30;2.70;;;1.30;;
13067;SDS011;6600;51.362;6.686;2024-03-23T14:23:56;4.17;;;1.17;;
13067;SDS011;6600;51.362;6.686;2024-03-23T14:26:21;2.73;;;1.20;;
13067;SDS011;6600;51.362;6.686;2024-03-23T14:28:46;2.77;;;1.27;;
13067;SDS011;6600;51.362;6.686;2024-03-23T14:31:12;3.10;;;1.47;;
13067;SDS011;6600;51.362;6.686;2024-03-23T14:33:37;3.63;;;1.50;;
13067;SDS011;6600;51.362;6.686;2024-03-23T14:36:06;4.97;;;1.40;;
13067;SDS011;6600;51.362;6.686;2024-03-23T14:38:31;1.97;;;1.30;;
13067;SDS011;6600;51.362;6.686;2024-03-23T14:41:00;2.00;;;1.20;;
13067;SDS011;6600;51.362;6.686;2024-03-23T14:43:27;2.27;;;1.23;;
13067;SDS011;6600;51.362;6.686;2024-03-23T14:48:43;3.27;;;1.37;;
13067;SDS011;6600;51.362;6.686;2024-03-23T14:51:09;1.63;;;1.20;;
13067;SDS011;6600;51.362;6.686;2024-03-23T14:53:39;2.67;;;1.27;;
13067;SDS011;6600;51.362;6.686;2024-03-23T14:56:09;3.70;;;1.20;;
13067;SDS011;6600;51.362;6.686;2024-03-23T14:58:40;2.83;;;1.20;;
13067;SDS011;6600;51.362;6.686;2024-03-23T15:01:06;2.40;;;1.17;;
13067;SDS011;6600;51.362;6.686;2024-03-23T15:03:39;2.87;;;1.23;;
13067;SDS011;6600;51.362;6.686;2024-03-23T15:06:04;1.47;;;1.30;;
13067;SDS011;6600;51.362;6.686;2024-03-23T15:08:30;2.00;;;1.20;;
13067;SDS011;6600;51.362;6.686;2024-03-23T15:10:59;2.13;;;1.10;;
13067;SDS011;6600;51.362;6.686;2024-03-23T15:13:25;3.33;;;1.30;;
13067;SDS011;6600;51.362;6.686;2024-03-23T15:15:51;1.43;;;1.00;;
13067;SDS011;6600;51.362;6.686;2024-03-23T15:18:17;2.83;;;1.00;;
13067;SDS011;6600;51.362;6.686;2024-03-23T15:23:19;3.03;;;1.00;;
13067;SDS011;6600;51.362;6.686;2024-03-23T15:25:44;1.87;;;1.00;;
13067;SDS011;6600;51.362;6.686;2024-03-23T15:28:10;3.63;;;1.40;;
13067;SDS011;6600;51.362;6.686;2024-03-23T15:30:35;8.40;;;3.27;;
13067;SDS011;6600;51.362;6.686;2024-03-23T15:33:00;3.70;;;1.80;;
13067;SDS011;6600;51.362;6.686;2024-03-23T15:35:25;4.53;;;1.80;;
13067;SDS011;6600;51.362;6.686;2024-03-23T15:37:51;3.77;;;2.00;;
13067;SDS011;6600;51.362;6.686;2024-03-23T15:40:16;3.13;;;1.60;;
13067;SDS011;6600;51.362;6.686;2024-03-23T15:42:42;2.63;;;1.57;;
13067;SDS011;6600;51.362;6.686;2024-03-23T15:45:08;4.13;;;1.37;;
13067;SDS011;6600;51.362;6.686;2024-03-23T15:47:34;6.20;;;1.73;;
13067;SDS011;6600;51.362;6.686;2024-03-23T15:50:00;3.37;;;1.23;;
13067;SDS011;6600;51.362;6.686;2024-03-23T15:52:26;3.70;;;1.90;;
13067;SDS011;6600;51.362;6.686;2024-03-23T15:54:51;4.87;;;1.33;;
13067;SDS011;6600;51.362;6.686;2024-03-23T15:57:17;2.33;;;1.40;;
13067;SDS011;6600;51.362;6.686;2024-03-23T15:59:43;1.93;;;1.30;;